createdAt,value
2023-03-12T00:02:17.591Z,12.25
2023-03-12T00:04:44.954Z,12.19
2023-03-12T00:07:12.356Z,12.11
2023-03-12T00:09:39.780Z,12.20
2023-03-12T00:12:07.674Z,12.13
2023-03-12T00:14:35.287Z,12.18
2023-03-12T00:17:02.690Z,12.13
2023-03-12T00:19:30.071Z,12.08
2023-03-12T00:21:57.486Z,12.17
2023-03-12T00:24:24.892Z,12.15
2023-03-12T00:26:52.252Z,12.08
2023-03-12T00:29:19.665Z,12.03
2023-03-12T00:31:47.778Z,11.98
2023-03-12T00:34:47.677Z,11.95
2023-03-12T00:37:15.071Z,11.86
2023-03-12T00:39:42.617Z,11.97
2023-03-12T00:42:09.975Z,11.94
2023-03-12T00:44:37.339Z,11.89
2023-03-12T00:47:05.018Z,11.95
2023-03-12T00:49:32.514Z,12.00
2023-03-12T00:51:59.922Z,11.82
2023-03-12T00:54:27.617Z,11.88
2023-03-12T00:56:55.084Z,11.81
2023-03-12T00:59:22.398Z,11.81
2023-03-12T01:01:50.264Z,11.82
2023-03-12T01:04:17.850Z,11.79
2023-03-12T01:06:45.317Z,11.81
2023-03-12T01:09:13.340Z,11.81
2023-03-12T01:11:41.144Z,11.76
2023-03-12T01:14:09.334Z,11.75
2023-03-12T01:16:36.848Z,11.75
2023-03-12T01:19:04.637Z,11.63
2023-03-12T01:21:32.451Z,11.70
2023-03-12T01:24:00.326Z,11.60
2023-03-12T01:26:28.272Z,11.59
2023-03-12T01:28:55.945Z,11.49
2023-03-12T01:31:23.401Z,11.40
2023-03-12T01:33:52.407Z,11.43
2023-03-12T01:36:23.262Z,11.43
2023-03-12T01:38:53.039Z,11.28
2023-03-12T01:41:21.276Z,11.22
2023-03-12T01:43:49.507Z,11.16
2023-03-12T01:46:24.046Z,11.12
2023-03-12T01:49:09.123Z,11.12
2023-03-12T01:51:50.382Z,11.08
2023-03-12T01:54:41.645Z,11.05
2023-03-12T01:57:14.852Z,11.02
2023-03-12T01:59:47.250Z,10.94
2023-03-12T02:02:15.653Z,10.95
2023-03-12T02:04:45.255Z,10.93
2023-03-12T02:07:15.681Z,10.90
2023-03-12T02:09:48.665Z,10.87
2023-03-12T02:12:17.068Z,10.83
2023-03-12T02:14:44.591Z,10.79
2023-03-12T02:17:12.390Z,10.83
2023-03-12T02:19:55.173Z,10.87
2023-03-12T02:22:23.549Z,10.80
2023-03-12T02:25:03.910Z,10.80
2023-03-12T02:27:37.354Z,10.77
2023-03-12T02:30:05.822Z,10.79
2023-03-12T02:32:38.410Z,10.77
2023-03-12T02:35:07.148Z,10.71
2023-03-12T02:37:34.596Z,10.63
2023-03-12T02:40:13.320Z,10.67
2023-03-12T02:42:40.736Z,10.67
2023-03-12T02:45:08.559Z,10.74
2023-03-12T02:47:35.969Z,10.71
2023-03-12T02:50:03.844Z,10.70
2023-03-12T02:52:35.599Z,10.78
2023-03-12T02:55:03.286Z,10.81
2023-03-12T02:57:31.069Z,10.86
2023-03-12T02:59:58.538Z,10.83
2023-03-12T03:02:26.009Z,10.83
2023-03-12T03:04:53.521Z,10.86
2023-03-12T03:07:20.900Z,10.76
2023-03-12T03:09:48.360Z,10.72
2023-03-12T03:12:15.798Z,10.67
2023-03-12T03:14:43.216Z,10.70
2023-03-12T03:17:11.290Z,10.73
2023-03-12T03:19:38.752Z,10.74
2023-03-12T03:22:06.268Z,10.75
2023-03-12T03:24:33.675Z,10.70
2023-03-12T03:27:01.042Z,10.79
2023-03-12T03:29:28.499Z,10.81
2023-03-12T03:31:55.999Z,10.80
2023-03-12T03:34:23.339Z,10.82
2023-03-12T03:36:50.875Z,10.81
2023-03-12T03:39:19.180Z,10.85
2023-03-12T03:41:47.396Z,10.71
2023-03-12T03:44:18.865Z,10.71
2023-03-12T03:46:47.842Z,10.84
2023-03-12T03:49:15.625Z,10.88
2023-03-12T03:51:43.387Z,10.79
2023-03-12T03:54:14.029Z,10.84
2023-03-12T03:56:42.765Z,10.79
2023-03-12T03:59:11.584Z,10.73
2023-03-12T04:01:40.637Z,10.81
2023-03-12T04:04:08.207Z,10.78
2023-03-12T04:06:36.981Z,10.73
2023-03-12T04:09:04.866Z,10.79
2023-03-12T04:11:34.033Z,10.73
2023-03-12T04:14:02.864Z,10.69
2023-03-12T04:16:32.874Z,10.59
2023-03-12T04:19:01.227Z,10.69
2023-03-12T04:21:28.922Z,10.71
2023-03-12T04:23:56.596Z,10.72
2023-03-12T04:26:28.497Z,10.70
2023-03-12T04:28:57.114Z,10.63
2023-03-12T04:31:24.846Z,10.52
2023-03-12T04:33:52.387Z,10.64
2023-03-12T04:36:23.593Z,10.65
2023-03-12T04:38:52.027Z,10.63
2023-03-12T04:41:23.643Z,10.70
2023-03-12T04:43:56.156Z,10.59
2023-03-12T04:46:23.832Z,10.58
2023-03-12T04:48:51.544Z,10.55
2023-03-12T04:51:18.929Z,10.52
2023-03-12T04:53:46.517Z,10.52
2023-03-12T04:56:15.427Z,10.54
2023-03-12T04:58:43.995Z,10.46
2023-03-12T05:01:23.908Z,10.35
2023-03-12T05:03:51.880Z,10.42
2023-03-12T05:06:20.319Z,10.39
2023-03-12T05:08:48.463Z,10.27
2023-03-12T05:11:16.898Z,10.28
2023-03-12T05:13:44.496Z,10.30
2023-03-12T05:16:13.251Z,10.28
2023-03-12T05:18:41.834Z,10.28
2023-03-12T05:21:18.686Z,10.32
2023-03-12T05:23:47.095Z,10.36
2023-03-12T05:26:24.828Z,10.31
2023-03-12T05:28:55.899Z,10.32
2023-03-12T05:31:25.249Z,10.24
2023-03-12T05:33:53.528Z,10.25
2023-03-12T05:36:22.420Z,10.15
2023-03-12T05:38:50.389Z,10.17
2023-03-12T05:41:28.879Z,10.20
2023-03-12T05:44:00.890Z,10.10
2023-03-12T05:46:29.420Z,10.11
2023-03-12T05:48:58.154Z,10.08
2023-03-12T05:51:25.829Z,9.96
2023-03-12T05:53:55.076Z,9.96
2023-03-12T05:56:23.122Z,9.93
2023-03-12T05:58:50.834Z,9.94
2023-03-12T06:01:26.634Z,9.92
2023-03-12T06:03:56.350Z,9.93
2023-03-12T06:06:25.850Z,10.06
2023-03-12T06:08:54.169Z,10.04
2023-03-12T06:11:21.600Z,10.06
2023-03-12T06:13:49.226Z,10.10
2023-03-12T06:16:20.970Z,10.00
2023-03-12T06:18:49.234Z,9.97
2023-03-12T06:21:23.832Z,10.02
2023-03-12T06:23:52.468Z,9.97
2023-03-12T06:26:30.932Z,10.04
2023-03-12T06:28:58.437Z,10.14
2023-03-12T06:31:25.867Z,10.15
2023-03-12T06:33:53.812Z,10.13
2023-03-12T06:36:24.072Z,10.17
2023-03-12T06:38:52.053Z,10.12
2023-03-12T06:41:21.054Z,10.20
2023-03-12T06:43:48.596Z,10.64
2023-03-12T06:46:18.475Z,11.23
2023-03-12T06:48:46.701Z,11.70
2023-03-12T06:51:15.971Z,12.41
2023-03-12T06:53:44.633Z,13.38
2023-03-12T06:56:12.783Z,13.40
2023-03-12T06:58:40.407Z,14.14
2023-03-12T07:01:08.184Z,15.02
2023-03-12T07:03:35.777Z,14.41
2023-03-12T07:06:03.494Z,14.99
2023-03-12T07:08:31.264Z,13.79
2023-03-12T07:11:01.842Z,13.46
2023-03-12T07:13:30.153Z,13.26
2023-03-12T07:15:57.992Z,13.14
2023-03-12T07:18:25.843Z,14.08
2023-03-12T07:20:53.626Z,15.25
2023-03-12T07:23:22.161Z,15.41
2023-03-12T07:25:50.440Z,14.99
2023-03-12T07:28:18.463Z,14.98
2023-03-12T07:30:50.547Z,15.30
2023-03-12T07:33:19.996Z,14.82
2023-03-12T07:35:51.425Z,14.76
2023-03-12T07:38:19.311Z,15.00
2023-03-12T07:40:54.915Z,14.65
2023-03-12T07:43:23.295Z,14.35
2023-03-12T07:45:53.732Z,13.81
2023-03-12T07:48:21.178Z,13.39
2023-03-12T07:50:49.086Z,13.11
2023-03-12T07:53:17.051Z,13.08
2023-03-12T07:56:06.542Z,13.13
2023-03-12T07:58:36.623Z,13.08
2023-03-12T08:01:04.985Z,12.97
2023-03-12T08:03:33.359Z,12.88
2023-03-12T08:06:03.193Z,12.87
2023-03-12T08:08:31.717Z,12.98
2023-03-12T08:11:00.417Z,13.17
2023-03-12T08:13:31.855Z,13.43
2023-03-12T08:15:59.343Z,13.31
2023-03-12T08:18:27.510Z,13.15
2023-03-12T08:20:54.941Z,13.30
2023-03-12T08:23:24.531Z,13.47
2023-03-12T08:25:52.870Z,13.25
2023-03-12T08:28:22.931Z,13.55
2023-03-12T08:30:54.689Z,13.97
2023-03-12T08:33:22.616Z,14.33
2023-03-12T08:35:50.889Z,14.18
2023-03-12T08:38:18.697Z,14.15
2023-03-12T08:40:46.246Z,14.41
2023-03-12T08:43:13.647Z,15.07
2023-03-12T08:45:41.209Z,15.01
2023-03-12T08:48:08.653Z,14.68
2023-03-12T08:50:36.213Z,14.57
2023-03-12T08:53:03.540Z,14.40
2023-03-12T08:55:30.891Z,14.43
2023-03-12T08:57:58.320Z,14.92
2023-03-12T09:00:25.696Z,15.16
2023-03-12T09:02:54.281Z,15.65
2023-03-12T09:05:21.799Z,15.88
2023-03-12T09:07:50.116Z,16.06
2023-03-12T09:10:21.101Z,16.07
2023-03-12T09:12:48.568Z,16.64
2023-03-12T09:15:16.120Z,16.46
2023-03-12T09:17:43.630Z,16.24
2023-03-12T09:20:14.597Z,15.78
2023-03-12T09:22:42.964Z,16.06
2023-03-12T09:25:11.592Z,15.80
2023-03-12T09:27:39.807Z,15.72
2023-03-12T09:30:12.685Z,15.36
2023-03-12T09:32:40.209Z,15.39
2023-03-12T09:35:09.476Z,15.21
2023-03-12T09:37:36.892Z,14.94
2023-03-12T09:40:07.835Z,14.94
2023-03-12T09:42:47.708Z,14.89
2023-03-12T09:45:27.615Z,15.07
2023-03-12T09:48:01.917Z,14.94
2023-03-12T09:50:33.590Z,14.56
2023-03-12T09:53:06.636Z,14.78
2023-03-12T09:55:43.666Z,14.79
2023-03-12T09:58:19.464Z,14.67
2023-03-12T10:00:47.680Z,14.46
2023-03-12T10:03:22.916Z,14.54
2023-03-12T10:05:53.322Z,14.52
2023-03-12T10:08:54.256Z,14.68
2023-03-12T10:11:57.061Z,14.57
2023-03-12T10:14:33.506Z,14.57
2023-03-12T10:17:32.912Z,14.36
2023-03-12T10:20:21.636Z,14.46
2023-03-12T10:23:13.202Z,14.37
2023-03-12T10:26:09.017Z,14.41
2023-03-12T10:28:42.829Z,14.52
2023-03-12T10:31:21.226Z,14.45
2023-03-12T10:33:54.346Z,14.65
2023-03-12T10:36:46.661Z,14.22
2023-03-12T10:39:17.104Z,14.04
2023-03-12T10:41:46.982Z,14.27
2023-03-12T10:44:22.250Z,14.15
2023-03-12T10:47:12.554Z,14.31
2023-03-12T10:49:40.028Z,14.32
2023-03-12T10:52:22.266Z,14.59
2023-03-12T10:54:52.368Z,14.55
2023-03-12T10:57:21.367Z,14.34
2023-03-12T10:59:51.093Z,14.44
2023-03-12T11:02:32.624Z,14.49
2023-03-12T11:05:02.668Z,14.63
2023-03-12T11:07:35.490Z,14.75
2023-03-12T11:10:14.168Z,14.69
2023-03-12T11:12:58.769Z,14.71
2023-03-12T11:15:38.113Z,14.92
2023-03-12T11:18:20.780Z,15.04
2023-03-12T11:20:52.507Z,14.93
2023-03-12T11:23:26.738Z,14.82
2023-03-12T11:25:58.894Z,14.81
2023-03-12T11:28:38.329Z,14.86
2023-03-12T11:31:11.221Z,15.00
2023-03-12T11:33:38.778Z,15.11
2023-03-12T11:36:07.092Z,15.12
2023-03-12T11:38:49.139Z,15.21
2023-03-12T11:41:25.048Z,15.00
2023-03-12T11:44:30.398Z,14.98
2023-03-12T11:47:07.220Z,15.01
2023-03-12T11:49:40.694Z,14.76
2023-03-12T11:52:35.400Z,14.82
2023-03-12T11:55:38.130Z,14.93
2023-03-12T11:58:33.369Z,14.86
2023-03-12T12:01:37.150Z,14.72
2023-03-12T12:04:10.627Z,14.86
2023-03-12T12:06:55.605Z,14.86
2023-03-12T12:09:51.714Z,15.07
2023-03-12T12:12:51.421Z,14.86
2023-03-12T12:15:24.814Z,14.99
2023-03-12T12:18:14.091Z,15.10
2023-03-12T12:21:17.829Z,15.12
2023-03-12T12:23:45.427Z,15.07
2023-03-12T12:26:15.750Z,14.93
2023-03-12T12:29:21.705Z,14.84
2023-03-12T12:32:01.284Z,15.06
2023-03-12T12:34:44.047Z,14.96
2023-03-12T12:37:40.378Z,15.06
2023-03-12T12:40:20.340Z,14.85
2023-03-12T12:43:06.661Z,15.02
2023-03-12T12:45:39.411Z,15.15
2023-03-12T12:48:16.829Z,14.96
2023-03-12T12:50:47.285Z,15.05
2023-03-12T12:53:41.013Z,14.75
2023-03-12T12:56:17.477Z,14.95
2023-03-12T12:59:25.113Z,14.87
2023-03-12T13:01:56.106Z,15.01
2023-03-12T13:04:39.100Z,15.10
2023-03-12T13:07:12.211Z,15.17
2023-03-12T13:09:41.228Z,15.17
2023-03-12T13:12:30.685Z,15.27
2023-03-12T13:14:59.836Z,15.15
2023-03-12T13:17:35.805Z,15.11
2023-03-12T13:20:16.306Z,15.03
2023-03-12T13:23:11.078Z,15.18
2023-03-12T13:25:56.694Z,15.14
2023-03-12T13:28:30.220Z,15.22
2023-03-12T13:31:01.017Z,15.18
2023-03-12T13:33:51.573Z,15.39
2023-03-12T13:36:23.811Z,15.45
2023-03-12T13:38:58.944Z,15.38
2023-03-12T13:41:38.521Z,15.32
2023-03-12T13:44:24.054Z,15.35
2023-03-12T13:47:26.484Z,15.33
2023-03-12T13:50:13.589Z,15.44
2023-03-12T13:52:51.647Z,15.36
2023-03-12T13:55:31.873Z,15.15
2023-03-12T13:58:16.978Z,15.07
2023-03-12T14:00:56.939Z,15.21
2023-03-12T14:03:30.149Z,15.26
2023-03-12T14:06:05.633Z,15.24
2023-03-12T14:09:10.010Z,15.18
2023-03-12T14:11:59.160Z,15.24
2023-03-12T14:14:41.247Z,15.34
2023-03-12T14:17:17.180Z,15.33
2023-03-12T14:19:52.703Z,15.28
2023-03-12T14:22:22.938Z,15.33
2023-03-12T14:24:56.915Z,15.29
2023-03-12T14:27:29.185Z,15.29
2023-03-12T14:30:12.052Z,15.41
2023-03-12T14:32:40.825Z,15.32
2023-03-12T14:35:31.027Z,15.17
2023-03-12T14:38:07.279Z,15.27
2023-03-12T14:41:00.533Z,15.11
2023-03-12T14:43:30.684Z,15.20
2023-03-12T14:46:01.718Z,15.08
2023-03-12T14:48:34.410Z,15.16
2023-03-12T14:51:04.900Z,15.10
2023-03-12T14:53:38.690Z,15.16
2023-03-12T14:56:13.730Z,15.20
2023-03-12T14:58:45.261Z,15.25
2023-03-12T15:01:17.227Z,15.25
2023-03-12T15:03:48.265Z,15.09
2023-03-12T15:06:43.013Z,15.13
2023-03-12T15:09:19.721Z,15.23
2023-03-12T15:12:02.233Z,15.21
2023-03-12T15:14:33.989Z,15.11
2023-03-12T15:17:05.271Z,15.11
2023-03-12T15:19:37.242Z,15.21
2023-03-12T15:22:05.502Z,15.26
2023-03-12T15:24:38.845Z,15.22
2023-03-12T15:27:30.535Z,15.23
2023-03-12T15:29:59.720Z,15.26
2023-03-12T15:32:29.840Z,15.15
2023-03-12T15:34:59.815Z,15.26
2023-03-12T15:37:41.266Z,15.41
2023-03-12T15:40:24.181Z,15.44
2023-03-12T15:42:57.485Z,15.33
2023-03-12T15:45:31.390Z,15.27
2023-03-12T15:47:58.942Z,15.24
2023-03-12T15:50:40.642Z,15.16
2023-03-12T15:53:14.103Z,15.35
2023-03-12T15:55:42.718Z,15.25
2023-03-12T15:58:32.785Z,15.13
2023-03-12T16:01:24.077Z,14.98
2023-03-12T16:03:51.641Z,15.00
2023-03-12T16:06:23.335Z,14.98
2023-03-12T16:08:52.955Z,15.17
2023-03-12T16:11:29.061Z,15.11
2023-03-12T16:14:04.681Z,15.12
2023-03-12T16:16:32.720Z,15.05
2023-03-12T16:19:00.456Z,15.02
2023-03-12T16:21:27.891Z,14.98
2023-03-12T16:23:55.268Z,14.86
2023-03-12T16:26:22.740Z,14.99
2023-03-12T16:28:50.363Z,14.93
2023-03-12T16:31:17.899Z,14.92
2023-03-12T16:33:45.449Z,14.85
2023-03-12T16:36:15.874Z,14.78
2023-03-12T16:38:44.575Z,14.72
2023-03-12T16:41:14.569Z,14.74
2023-03-12T16:43:46.086Z,14.78
2023-03-12T16:46:19.645Z,14.70
2023-03-12T16:48:52.178Z,14.61
2023-03-12T16:51:20.370Z,14.62
2023-03-12T16:53:58.449Z,14.57
2023-03-12T16:56:29.473Z,14.56
2023-03-12T16:59:07.233Z,14.49
2023-03-12T17:01:36.043Z,14.45
2023-03-12T17:04:04.952Z,14.51
2023-03-12T17:06:32.892Z,14.42
2023-03-12T17:09:00.348Z,14.39
2023-03-12T17:11:30.472Z,14.30
2023-03-12T17:14:01.219Z,14.25
2023-03-12T17:16:28.848Z,14.22
2023-03-12T17:18:56.916Z,14.18
2023-03-12T17:21:24.803Z,14.09
2023-03-12T17:23:52.228Z,14.02
2023-03-12T17:26:19.850Z,13.95
2023-03-12T17:28:47.300Z,13.84
2023-03-12T17:31:14.838Z,13.74
2023-03-12T17:33:43.339Z,13.70
2023-03-12T17:36:10.985Z,13.72
2023-03-12T17:38:38.473Z,13.75
2023-03-12T17:41:16.539Z,13.59
2023-03-12T17:43:51.071Z,13.65
2023-03-12T17:46:18.726Z,13.67
2023-03-12T17:48:46.168Z,13.63
2023-03-12T17:51:13.623Z,13.64
2023-03-12T17:53:42.046Z,13.64
2023-03-12T17:56:12.530Z,13.56
2023-03-12T17:58:40.183Z,13.62
2023-03-12T18:01:08.293Z,13.66
2023-03-12T18:03:35.983Z,13.81
2023-03-12T18:06:04.020Z,13.63
2023-03-12T18:08:31.510Z,13.55
2023-03-12T18:10:59.043Z,13.50
2023-03-12T18:13:26.476Z,13.49
2023-03-12T18:15:56.081Z,13.31
2023-03-12T18:18:25.386Z,13.20
2023-03-12T18:20:53.126Z,13.13
2023-03-12T18:23:20.804Z,13.10
2023-03-12T18:25:48.280Z,12.92
2023-03-12T18:28:16.657Z,12.87
2023-03-12T18:30:47.688Z,12.92
2023-03-12T18:33:15.085Z,12.84
2023-03-12T18:35:46.163Z,12.87
2023-03-12T18:38:13.871Z,12.72
2023-03-12T18:40:41.338Z,12.73
2023-03-12T18:43:08.780Z,12.67
2023-03-12T18:45:41.717Z,12.84
2023-03-12T18:48:09.181Z,12.79
2023-03-12T18:50:37.525Z,12.71
2023-03-12T18:53:04.980Z,12.66
2023-03-12T18:55:32.458Z,12.74
2023-03-12T18:57:59.945Z,12.74
2023-03-12T19:00:27.410Z,12.82
2023-03-12T19:02:54.909Z,12.84
2023-03-12T19:05:22.495Z,12.84
2023-03-12T19:07:49.938Z,12.65
2023-03-12T19:10:17.527Z,12.65
2023-03-12T19:12:52.683Z,12.66
2023-03-12T19:15:22.249Z,12.60
2023-03-12T19:17:50.561Z,12.73
2023-03-12T19:20:18.393Z,12.72
2023-03-12T19:22:45.814Z,12.65
2023-03-12T19:25:13.536Z,12.54
2023-03-12T19:27:41.118Z,12.53
2023-03-12T19:30:09.210Z,12.41
2023-03-12T19:32:43.809Z,12.53
2023-03-12T19:35:13.832Z,12.40
2023-03-12T19:37:42.309Z,12.37
2023-03-12T19:40:10.954Z,12.27
2023-03-12T19:42:38.619Z,12.31
2023-03-12T19:45:06.617Z,12.31
2023-03-12T19:47:34.139Z,12.39
2023-03-12T19:50:01.877Z,12.36
2023-03-12T19:52:36.044Z,12.36
2023-03-12T19:55:05.628Z,12.32
2023-03-12T19:57:34.295Z,12.29
2023-03-12T20:00:02.131Z,12.23
2023-03-12T20:02:31.799Z,12.25
2023-03-12T20:04:59.360Z,12.23
2023-03-12T20:07:26.992Z,12.21
2023-03-12T20:09:54.737Z,12.23
2023-03-12T20:12:22.170Z,12.24
2023-03-12T20:14:49.729Z,12.10
2023-03-12T20:17:17.456Z,12.02
2023-03-12T20:19:45.505Z,12.08
2023-03-12T20:22:13.281Z,12.05
2023-03-12T20:24:41.536Z,12.15
2023-03-12T20:27:09.160Z,11.93
2023-03-12T20:29:36.663Z,11.92
2023-03-12T20:32:04.945Z,12.02
2023-03-12T20:34:32.576Z,11.99
2023-03-12T20:36:59.963Z,12.01
2023-03-12T20:39:33.817Z,12.06
2023-03-12T20:42:01.661Z,11.94
2023-03-12T20:44:29.115Z,12.07
2023-03-12T20:46:57.717Z,12.04
2023-03-12T20:49:25.246Z,11.95
2023-03-12T20:51:52.596Z,11.89
2023-03-12T20:54:20.047Z,11.87
2023-03-12T20:56:47.619Z,12.02
2023-03-12T20:59:27.720Z,11.92
2023-03-12T21:01:56.073Z,11.91
2023-03-12T21:04:23.600Z,11.83
2023-03-12T21:06:52.426Z,11.87
2023-03-12T21:09:24.521Z,11.80
2023-03-12T21:11:52.015Z,11.59
2023-03-12T21:14:19.477Z,11.55
2023-03-12T21:16:47.332Z,11.64
2023-03-12T21:19:14.960Z,11.63
2023-03-12T21:21:42.441Z,11.66
2023-03-12T21:24:10.279Z,11.69
2023-03-12T21:26:37.693Z,11.61
2023-03-12T21:29:05.239Z,11.58
2023-03-12T21:31:32.705Z,11.55
2023-03-12T21:34:00.119Z,11.54
2023-03-12T21:36:27.681Z,11.47
2023-03-12T21:38:55.141Z,11.52
2023-03-12T21:41:22.632Z,11.44
2023-03-12T21:43:50.082Z,11.39
2023-03-12T21:46:20.586Z,11.49
2023-03-12T21:48:48.313Z,11.51
2023-03-12T21:51:17.313Z,11.53
2023-03-12T21:53:44.913Z,11.36
2023-03-12T21:56:12.338Z,11.27
2023-03-12T21:58:40.051Z,11.28
2023-03-12T22:01:16.148Z,11.00
2023-03-12T22:03:45.919Z,11.09
2023-03-12T22:06:15.129Z,11.13
2023-03-12T22:08:48.078Z,11.22
2023-03-12T22:11:15.983Z,11.12
2023-03-12T22:13:43.779Z,11.07
2023-03-12T22:16:12.998Z,11.00
2023-03-12T22:18:45.054Z,10.87
2023-03-12T22:21:18.385Z,11.02
2023-03-12T22:23:50.969Z,10.81
2023-03-12T22:26:20.720Z,10.68
2023-03-12T22:28:53.273Z,10.52
2023-03-12T22:31:22.869Z,10.58
2023-03-12T22:33:50.726Z,10.39
2023-03-12T22:36:19.590Z,10.27
2023-03-12T22:38:50.415Z,10.27
2023-03-12T22:41:19.496Z,10.28
2023-03-12T22:43:48.394Z,10.42
2023-03-12T22:46:17.658Z,10.44
2023-03-12T22:48:46.522Z,10.26
2023-03-12T22:51:14.252Z,10.34
2023-03-12T22:53:41.697Z,10.27
2023-03-12T22:56:11.434Z,10.14
2023-03-12T22:58:39.277Z,10.02
2023-03-12T23:01:09.797Z,9.93
2023-03-12T23:03:38.678Z,9.93
2023-03-12T23:06:32.824Z,10.02
2023-03-12T23:09:00.945Z,9.85
2023-03-12T23:11:29.708Z,9.68
2023-03-12T23:13:57.328Z,9.62
2023-03-12T23:16:26.063Z,9.73
2023-03-12T23:18:53.954Z,9.76
2023-03-12T23:21:23.738Z,9.77
2023-03-12T23:23:51.628Z,9.65
2023-03-12T23:26:26.507Z,9.39
2023-03-12T23:28:55.962Z,9.31
2023-03-12T23:31:24.716Z,9.26
2023-03-12T23:33:52.162Z,9.34
2023-03-12T23:36:21.918Z,9.38
2023-03-12T23:38:50.265Z,9.48
2023-03-12T23:41:20.666Z,9.24
2023-03-12T23:43:48.950Z,9.27
2023-03-12T23:46:17.132Z,9.30
2023-03-12T23:48:45.810Z,9.46
2023-03-12T23:51:14.616Z,9.47
2023-03-12T23:53:45.476Z,9.42
2023-03-12T23:56:15.570Z,9.28
2023-03-12T23:58:44.427Z,9.23
